Portada
METAR-TAF:

METAR-TAF

Aeroports :

Iakutsk, Rússia

latitud: 62-01N, longitud: 129-43E, altitud: 103 m

Observació

L'informe es va fer fa 23 minuts, a les 14:00 UTC
Vent 4 kt del Sud
Temperatura -5°C
Humitat 79%
Pressió 1028 hPa
Visibilitat 10 km o més
sense núvols per sota de 1500 mi sense presència de cumulonimbus.

METAR: UEEE 071400Z 18002MPS CAVOK M05/M08 Q1028 R23L/29//60 NOSIG RMK QFE762

Hora: 23:23 (14:23 UTC)

Pronòstic

L'informe es va fer fa 3 hores i 23 minuts, a les 11:00 UTC
Pronòstic vàlid del 07 a les 12 UTC al 08 a les 18 UTC
Vent 6 kt del Sud/Sud-Oest
Visibilitat 10 km o més
sense núvols per sota de 1500 mi sense presència de cumulonimbus.
Temporalment
l' 07 a les 18 UTC al 08 a les 03 UTC
Visibilitat: 0500 m
a una alçada de 300 ft
boira gebradora

TAF: UEEE 071100Z 0712/0818 20003MPS CAVOK TEMPO 0718/0803 0500 FZFG VV003

Observacions i pronòstics meteorològics de més de 4000 aeroports (METAR i TAF).

Les estacions disponibles són els punts grocs i vermells al mapa.

Posi el ratolí al punt desitjat per veure el nom de l'estació.

Feu clic per veure les observacions i els pronòstics meteorològics.

Per canviar el mapa: feu clic els botons verds amb una creu de color negre per apropar; al botó verd amb un guió per allunyar la imatge; o en les fletxes verdes per a mapes adjacents.


METAR-TAF: